Tocsin, Indiana
Current Conditions -  °F | °C
As of 12:54 AM on Wednesday 22 Oct 2014 (Local Time) from KFWA Reporting Station
Few Clouds Few Clouds  
Wind Chill: 38°   Ceiling: Unl
Heat Index: 42°   Visibility: 10mi
Dew Point: 35°   Wind: 7mph
Humidity: 76%   Direction: 10°N
Pressure: 30.24"   Gusts: NA
Location:  40.8661°N, 85.1531°W
Report Text: KFWA 220454Z 01006KT 10SM FEW048 06/02 A3024 RMK AO2 SLP242 T00560017 401170056
Loading
Personal Weather Stations






























Interactive Weather Map
Tropical Storm Tracking
New forecast layout! Learn more

10-Day Weather Forecast

Advertisements
Track Severe Weather on mobile